Alleghany, California
Current Conditions -  °F | °C
As of 2:52 PM on Tuesday 25 Nov 2014 (Local Time) from KBLU Reporting Station
Clear Clear  
Wind Chill: 57°   Ceiling: Unl
Heat Index: 57°   Visibility: 10mi
Dew Point: 35°   Wind: 3mph
Humidity: 44%   Direction: 250°WSW
Pressure: 30.49"   Gusts: NA
Location:  39.47°N, 120.85°W
Report Text: KBLU 252252Z AUTO 25003KT 10SM CLR 14/02 A3049 RMK AO2 SLP282 T01390017
Loading
Personal Weather Stations






























Interactive Weather Map New forecast layout! Learn more

10-Day Weather Forecast

Advertisements
Track Severe Weather on mobile